Time;durP1;ratioP1;P1;durP2;ratioP2;P2;SDS_P1;SDS_P2;PMS_P1;PMS_P2;Temp;Humidity;BMP_temperature;BMP_pressure;BME280_temperature;BME280_humidity;BME280_pressure;Samples;Min_cycle;Max_cycle;Signal;HPM_P1;HPM_P2
2022/05/01 00:00:59;;;;;;;11.38;7.55;;;;;;;;;;5048526;28;20880;-58
2022/05/01 00:03:31;;;;;;;13.00;7.22;;;;;;;;;;5064810;28;20089;-58
2022/05/01 00:05:59;;;;;;;15.18;7.82;;;;;;;;;;5066761;28;20081;-58
2022/05/01 00:08:25;;;;;;;16.23;7.45;;;;;;;;;;5055931;28;20103;-57
2022/05/01 00:10:52;;;;;;;13.18;7.47;;;;;;;;;;5052757;28;20549;-57
2022/05/01 00:13:39;;;;;;;17.27;7.65;;;;;;;;;;5057611;28;20108;-57
2022/05/01 00:16:06;;;;;;;16.92;9.05;;;;;;;;;;5052469;28;20054;-58
2022/05/01 00:18:32;;;;;;;12.85;7.68;;;;;;;;;;5048643;28;20059;-58
2022/05/01 00:20:59;;;;;;;16.00;7.70;;;;;;;;;;5048487;28;20243;-55
2022/05/01 00:23:25;;;;;;;16.58;8.30;;;;;;;;;;5053602;28;20084;-56
2022/05/01 00:25:51;;;;;;;11.38;7.10;;;;;;;;;;5064197;28;20076;-56
2022/05/01 00:28:18;;;;;;;14.90;7.88;;;;;;;;;;5066440;28;20565;-54
2022/05/01 00:30:44;;;;;;;11.48;7.22;;;;;;;;;;5065915;28;20084;-58
2022/05/01 00:38:40;;;;;;;14.77;7.45;;;;;;;;;;5048337;28;20131;-58
2022/05/01 00:41:07;;;;;;;11.98;6.97;;;;;;;;;;5048906;28;20081;-58
2022/05/01 00:43:53;;;;;;;13.85;8.05;;;;;;;;;;5058206;28;20507;-58
2022/05/01 00:46:20;;;;;;;17.65;8.13;;;;;;;;;;5063490;28;20148;-59
2022/05/01 00:48:46;;;;;;;16.30;7.65;;;;;;;;;;5068279;28;20053;-55
2022/05/01 00:51:13;;;;;;;16.88;7.57;;;;;;;;;;5067688;28;20139;-56
2022/05/01 00:53:40;;;;;;;14.35;8.35;;;;;;;;;;5049702;28;20262;-54
2022/05/01 00:56:06;;;;;;;13.02;7.97;;;;;;;;;;5048753;28;20045;-57
2022/05/01 00:58:33;;;;;;;14.00;8.52;;;;;;;;;;5061130;28;20570;-58
2022/05/01 01:01:00;;;;;;;15.68;8.20;;;;;;;;;;5047838;28;20641;-56
2022/05/01 01:03:26;;;;;;;13.75;8.05;;;;;;;;;;5051102;28;20085;-58
2022/05/01 01:05:53;;;;;;;14.90;8.80;;;;;;;;;;5057144;28;20049;-57
2022/05/01 01:08:19;;;;;;;15.00;8.05;;;;;;;;;;5047716;28;20576;-55
2022/05/01 01:10:45;;;;;;;16.85;8.35;;;;;;;;;;5059517;28;20095;-55
2022/05/01 01:13:12;;;;;;;13.88;8.25;;;;;;;;;;5054733;28;20159;-54
2022/05/01 01:15:39;;;;;;;15.70;8.10;;;;;;;;;;5077315;28;20080;-54
2022/05/01 01:18:05;;;;;;;14.32;7.95;;;;;;;;;;5063909;28;20080;-54
2022/05/01 01:20:32;;;;;;;13.15;8.07;;;;;;;;;;5070560;28;20140;-54
2022/05/01 01:22:59;;;;;;;15.60;8.05;;;;;;;;;;5063969;28;20073;-55
2022/05/01 01:25:29;;;;;;;13.88;8.07;;;;;;;;;;5067566;28;20505;-54
2022/05/01 01:27:57;;;;;;;14.20;7.65;;;;;;;;;;5068139;28;20077;-57
2022/05/01 01:33:10;;;;;;;16.17;8.65;;;;;;;;;;5049252;28;20120;-54
2022/05/01 01:35:37;;;;;;;15.37;8.47;;;;;;;;;;5063856;28;20053;-56
2022/05/01 01:38:04;;;;;;;13.65;8.40;;;;;;;;;;5045951;28;20128;-57
2022/05/01 01:40:33;;;;;;;15.45;7.80;;;;;;;;;;5047295;28;20405;-56
2022/05/01 01:42:59;;;;;;;13.35;7.38;;;;;;;;;;5050317;28;20065;-57
2022/05/01 01:45:28;;;;;;;13.98;8.18;;;;;;;;;;5054597;28;20573;-56
2022/05/01 01:48:09;;;;;;;14.40;8.40;;;;;;;;;;5067594;28;20160;-56
2022/05/01 01:50:36;;;;;;;13.18;7.93;;;;;;;;;;5053809;28;20143;-56
2022/05/01 01:53:02;;;;;;;13.90;7.57;;;;;;;;;;5053783;28;20084;-53
2022/05/01 01:55:31;;;;;;;15.60;9.43;;;;;;;;;;5064647;28;20137;-57
2022/05/01 01:57:57;;;;;;;;;;;;;;;;;;5051527;28;20142;-55
2022/05/01 02:00:23;;;;;;;12.68;8.07;;;;;;;;;;5046921;28;44028;-55
2022/05/01 02:02:56;;;;;;;15.52;8.15;;;;;;;;;;5047518;28;20085;-53
2022/05/01 02:05:23;;;;;;;13.52;8.00;;;;;;;;;;5046748;28;20065;-54
2022/05/01 02:07:49;;;;;;;13.90;8.40;;;;;;;;;;5049892;28;20089;-54
2022/05/01 02:10:15;;;;;;;13.85;8.75;;;;;;;;;;5046783;28;20172;-55
2022/05/01 02:12:42;;;;;;;15.63;8.45;;;;;;;;;;5046371;28;20534;-54
2022/05/01 02:15:09;;;;;;;16.92;8.48;;;;;;;;;;5046544;28;20053;-57
2022/05/01 02:17:35;;;;;;;17.63;8.80;;;;;;;;;;5047112;28;20084;-57
2022/05/01 02:20:01;;;;;;;15.07;8.57;;;;;;;;;;5057910;28;20106;-53
2022/05/01 02:22:28;;;;;;;17.15;8.98;;;;;;;;;;5065065;28;20088;-56
2022/05/01 02:24:54;;;;;;;15.60;7.47;;;;;;;;;;5061278;28;20073;-56
2022/05/01 02:27:21;;;;;;;15.45;8.43;;;;;;;;;;5058127;28;20144;-55
2022/05/01 02:29:47;;;;;;;14.65;8.93;;;;;;;;;;5055349;28;20084;-55
2022/05/01 02:32:14;;;;;;;17.05;8.27;;;;;;;;;;5046576;28;20081;-53
2022/05/01 02:34:40;;;;;;;17.20;8.85;;;;;;;;;;5057525;28;20134;-56
2022/05/01 02:37:07;;;;;;;17.08;8.75;;;;;;;;;;5062555;28;20092;-55
2022/05/01 02:39:33;;;;;;;19.50;9.35;;;;;;;;;;5068325;28;20076;-56
2022/05/01 02:42:00;;;;;;;17.90;9.48;;;;;;;;;;5055813;28;20566;-54
2022/05/01 02:44:26;;;;;;;16.75;9.20;;;;;;;;;;5064976;28;20092;-56
2022/05/01 02:46:53;;;;;;;14.63;9.00;;;;;;;;;;5049949;28;20538;-56
2022/05/01 02:49:20;;;;;;;14.80;8.98;;;;;;;;;;5057530;28;20573;-55
2022/05/01 02:51:46;;;;;;;14.30;8.77;;;;;;;;;;5068635;28;20057;-57
2022/05/01 02:54:12;;;;;;;17.17;8.57;;;;;;;;;;5068212;28;20512;-55
2022/05/01 02:56:39;;;;;;;15.15;8.68;;;;;;;;;;5053110;28;20139;-54
2022/05/01 02:59:09;;;;;;;14.45;8.98;;;;;;;;;;5065361;28;20069;-55
2022/05/01 03:01:36;;;;;;;15.18;9.27;;;;;;;;;;5067518;28;20127;-54
2022/05/01 03:04:03;;;;;;;20.25;9.50;;;;;;;;;;5067739;28;20056;-56
2022/05/01 03:06:29;;;;;;;16.13;9.25;;;;;;;;;;5068790;28;20057;-62
2022/05/01 03:08:56;;;;;;;17.58;9.32;;;;;;;;;;5055627;28;20111;-56
2022/05/01 03:11:22;;;;;;;18.42;9.25;;;;;;;;;;5058729;28;20107;-53
2022/05/01 03:13:48;;;;;;;16.23;9.32;;;;;;;;;;5049720;28;20504;-57
2022/05/01 03:16:15;;;;;;;16.23;8.80;;;;;;;;;;5063636;28;20089;-57
2022/05/01 03:24:11;;;;;;;16.63;9.02;;;;;;;;;;5067062;28;20144;-55
2022/05/01 03:26:38;;;;;;;15.90;9.00;;;;;;;;;;5069546;28;20131;-57
2022/05/01 03:29:04;;;;;;;14.80;9.05;;;;;;;;;;5051833;28;20596;-53
2022/05/01 03:31:31;;;;;;;16.25;9.63;;;;;;;;;;5050159;28;20933;-55
2022/05/01 03:33:59;;;;;;;14.80;8.60;;;;;;;;;;5049473;28;20144;-60
2022/05/01 03:36:26;;;;;;;17.83;10.13;;;;;;;;;;5059854;28;20136;-56
2022/05/01 03:38:52;;;;;;;17.15;9.70;;;;;;;;;;5054753;28;20107;-59
2022/05/01 03:41:19;;;;;;;17.83;9.70;;;;;;;;;;5051365;28;20140;-62
2022/05/01 03:43:45;;;;;;;16.02;9.35;;;;;;;;;;5059809;28;20608;-61
2022/05/01 03:46:11;;;;;;;17.00;9.40;;;;;;;;;;5061169;28;20084;-59
2022/05/01 03:48:38;;;;;;;17.42;9.73;;;;;;;;;;5057772;28;20053;-54
2022/05/01 03:51:05;;;;;;;18.38;10.27;;;;;;;;;;5057749;28;20136;-57
2022/05/01 03:53:31;;;;;;;15.48;9.30;;;;;;;;;;5055944;28;20186;-57
2022/05/01 03:55:57;;;;;;;16.13;9.10;;;;;;;;;;5065834;28;20111;-58
2022/05/01 03:58:24;;;;;;;21.20;9.45;;;;;;;;;;5064722;28;20149;-57
2022/05/01 04:00:50;;;;;;;13.93;8.68;;;;;;;;;;5061348;28;20569;-56
2022/05/01 04:03:17;;;;;;;18.30;9.88;;;;;;;;;;5048672;28;20061;-57
2022/05/01 04:05:44;;;;;;;18.67;9.43;;;;;;;;;;5055663;28;20081;-58
2022/05/01 04:08:10;;;;;;;17.45;9.35;;;;;;;;;;5048786;28;20148;-58
2022/05/01 04:10:41;;;;;;;18.33;10.45;;;;;;;;;;5049081;28;20132;-55
2022/05/01 04:13:07;;;;;;;18.70;9.63;;;;;;;;;;5056173;28;20601;-55
2022/05/01 04:15:36;;;;;;;19.25;9.75;;;;;;;;;;5051504;28;20830;-55
2022/05/01 04:18:03;;;;;;;18.50;10.00;;;;;;;;;;5048567;28;20513;-58
2022/05/01 04:20:30;;;;;;;16.92;9.90;;;;;;;;;;5060924;28;20147;-55
2022/05/01 04:22:56;;;;;;;22.10;9.77;;;;;;;;;;5059541;28;20143;-58
2022/05/01 04:25:29;;;;;;;16.10;9.48;;;;;;;;;;5050458;28;20132;-54
2022/05/01 04:27:57;;;;;;;16.83;9.52;;;;;;;;;;5054473;28;20555;-58
2022/05/01 04:30:26;;;;;;;18.55;10.40;;;;;;;;;;5052440;28;20092;-57
2022/05/01 04:32:53;;;;;;;;;;;;;;;;;;5069785;28;20053;-57
2022/05/01 04:35:31;;;;;;;18.40;9.68;;;;;;;;;;5066185;28;43068;-57
2022/05/01 04:38:01;;;;;;;17.52;10.32;;;;;;;;;;5051458;28;20481;-57
2022/05/01 04:40:28;;;;;;;18.52;9.93;;;;;;;;;;5048570;28;20083;-55
2022/05/01 04:43:02;;;;;;;21.40;11.07;;;;;;;;;;5048192;28;20081;-55
2022/05/01 04:45:29;;;;;;;20.40;10.50;;;;;;;;;;5052913;28;20179;-55
2022/05/01 04:47:55;;;;;;;18.10;10.57;;;;;;;;;;5048230;28;20595;-57
2022/05/01 04:50:22;;;;;;;19.00;10.43;;;;;;;;;;5047712;28;20136;-57
2022/05/01 04:52:48;;;;;;;19.17;10.20;;;;;;;;;;5051970;28;20061;-56
2022/05/01 04:55:15;;;;;;;19.70;10.98;;;;;;;;;;5048801;28;20144;-57
2022/05/01 04:57:42;;;;;;;24.08;10.50;;;;;;;;;;5052504;28;20175;-57
2022/05/01 05:00:08;;;;;;;21.30;10.80;;;;;;;;;;5047799;28;20124;-57
2022/05/01 05:02:39;;;;;;;19.95;10.77;;;;;;;;;;5048983;28;20150;-56
2022/05/01 05:05:06;;;;;;;19.48;11.45;;;;;;;;;;5055028;28;20492;-55
2022/05/01 05:07:33;;;;;;;19.77;10.45;;;;;;;;;;5047871;28;20073;-55
2022/05/01 05:09:59;;;;;;;16.63;10.05;;;;;;;;;;5053776;28;20148;-54
2022/05/01 05:12:26;;;;;;;20.30;10.80;;;;;;;;;;5052553;28;20053;-57
2022/05/01 05:14:55;;;;;;;26.80;13.57;;;;;;;;;;5056857;28;20057;-57
2022/05/01 05:17:21;;;;;;;;;;;;;;;;;;5053348;28;20088;-57
2022/05/01 05:19:47;;;;;;;21.13;11.40;;;;;;;;;;5067178;28;43715;-57
2022/05/01 05:22:14;;;;;;;26.95;12.75;;;;;;;;;;5051674;28;20053;-58
2022/05/01 05:24:41;;;;;;;26.52;14.52;;;;;;;;;;5048876;28;20148;-58
2022/05/01 05:27:07;;;;;;;28.77;14.43;;;;;;;;;;5048418;28;20057;-57
2022/05/01 05:29:34;;;;;;;23.50;12.93;;;;;;;;;;5048451;28;20080;-57
2022/05/01 05:32:00;;;;;;;22.65;13.45;;;;;;;;;;5062107;28;20076;-55
2022/05/01 05:34:27;;;;;;;21.33;12.35;;;;;;;;;;5067963;28;20549;-56
2022/05/01 05:36:53;;;;;;;22.13;12.48;;;;;;;;;;5064576;28;20234;-56
2022/05/01 05:39:19;;;;;;;25.10;13.57;;;;;;;;;;5067703;28;20088;-55
2022/05/01 05:41:46;;;;;;;22.27;12.95;;;;;;;;;;5055426;28;20597;-56
2022/05/01 05:44:12;;;;;;;19.13;11.65;;;;;;;;;;5047908;28;20144;-57
2022/05/01 05:46:38;;;;;;;22.50;13.13;;;;;;;;;;5047083;28;20570;-56
2022/05/01 05:49:05;;;;;;;25.08;12.48;;;;;;;;;;5046574;28;20064;-57
2022/05/01 05:51:31;;;;;;;23.08;13.25;;;;;;;;;;5046218;28;20084;-57
2022/05/01 05:53:58;;;;;;;20.88;11.88;;;;;;;;;;5047867;28;20132;-57
2022/05/01 05:56:24;;;;;;;22.40;12.73;;;;;;;;;;5047439;28;20107;-55
2022/05/01 05:58:51;;;;;;;22.98;12.82;;;;;;;;;;5046392;28;20054;-56
2022/05/01 06:01:18;;;;;;;22.27;12.30;;;;;;;;;;5046292;28;20049;-56
2022/05/01 06:03:45;;;;;;;23.17;11.75;;;;;;;;;;5046702;28;20058;-57
2022/05/01 06:06:12;;;;;;;19.70;12.57;;;;;;;;;;5047855;28;20053;-58
2022/05/01 06:08:38;;;;;;;21.63;11.88;;;;;;;;;;5064531;28;20266;-56
2022/05/01 06:11:05;;;;;;;18.92;12.27;;;;;;;;;;5091216;28;20594;-58
2022/05/01 06:13:31;;;;;;;19.98;11.85;;;;;;;;;;5078215;28;20088;-58
2022/05/01 06:15:57;;;;;;;23.48;12.77;;;;;;;;;;5070113;28;20603;-58
2022/05/01 06:18:24;;;;;;;20.27;12.57;;;;;;;;;;5070702;28;20057;-59
2022/05/01 06:20:50;;;;;;;19.80;12.52;;;;;;;;;;5070797;28;20140;-58
2022/05/01 06:23:20;;;;;;;20.00;12.07;;;;;;;;;;5051434;28;20057;-53
2022/05/01 06:25:47;;;;;;;22.40;13.18;;;;;;;;;;5078451;28;20527;-55
2022/05/01 06:28:14;;;;;;;22.05;11.75;;;;;;;;;;5090955;28;20076;-55
2022/05/01 06:30:45;;;;;;;20.10;12.40;;;;;;;;;;5080120;28;20073;-57
2022/05/01 06:33:13;;;;;;;22.27;12.13;;;;;;;;;;5050228;28;20096;-57
2022/05/01 06:35:39;;;;;;;23.02;11.32;;;;;;;;;;5054685;28;20053;-56
2022/05/01 06:38:09;;;;;;;18.02;11.23;;;;;;;;;;5050894;28;20088;-57
2022/05/01 06:40:37;;;;;;;19.55;11.88;;;;;;;;;;5068512;28;20526;-56
2022/05/01 06:43:07;;;;;;;19.58;11.80;;;;;;;;;;5065456;28;20590;-58
2022/05/01 06:45:34;;;;;;;17.83;11.25;;;;;;;;;;5056546;28;20049;-55
2022/05/01 06:48:03;;;;;;;23.40;12.85;;;;;;;;;;5049431;28;20046;-56
2022/05/01 06:50:30;;;;;;;20.30;12.18;;;;;;;;;;5065387;28;20519;-56
2022/05/01 06:52:56;;;;;;;18.20;11.10;;;;;;;;;;5088142;28;20190;-53
2022/05/01 06:55:25;;;;;;;20.25;12.00;;;;;;;;;;5083591;28;20084;-57
2022/05/01 06:57:55;;;;;;;23.42;12.30;;;;;;;;;;5061685;28;20049;-60
2022/05/01 07:00:21;;;;;;;22.83;12.05;;;;;;;;;;5068629;28;20099;-57
2022/05/01 07:02:48;;;;;;;25.13;11.60;;;;;;;;;;5069774;28;20114;-59
2022/05/01 07:05:16;;;;;;;20.83;11.85;;;;;;;;;;5069873;28;20064;-57
2022/05/01 07:07:42;;;;;;;16.40;10.45;;;;;;;;;;5070058;28;20231;-57
2022/05/01 07:10:09;;;;;;;22.25;11.57;;;;;;;;;;5069648;28;20144;-57
2022/05/01 07:12:35;;;;;;;17.42;10.50;;;;;;;;;;5065428;28;20054;-60
2022/05/01 07:15:02;;;;;;;17.35;10.30;;;;;;;;;;5065542;28;20053;-60
2022/05/01 07:17:28;;;;;;;20.02;10.13;;;;;;;;;;5069855;28;20033;-57
2022/05/01 07:19:54;;;;;;;17.13;9.90;;;;;;;;;;5069565;28;20143;-56
2022/05/01 07:22:21;;;;;;;20.52;10.82;;;;;;;;;;5070038;28;20076;-57
2022/05/01 07:24:47;;;;;;;19.08;10.88;;;;;;;;;;5069783;28;20468;-58
2022/05/01 07:27:13;;;;;;;17.17;10.60;;;;;;;;;;5057373;28;20152;-56
2022/05/01 07:29:40;;;;;;;16.08;9.63;;;;;;;;;;5058328;28;20159;-56
2022/05/01 07:32:07;;;;;;;15.40;10.13;;;;;;;;;;5062360;28;20053;-57
2022/05/01 07:34:33;;;;;;;16.23;10.48;;;;;;;;;;5080570;28;20114;-57
2022/05/01 07:36:59;;;;;;;21.50;11.25;;;;;;;;;;5068387;28;20092;-58
2022/05/01 07:39:26;;;;;;;17.55;10.75;;;;;;;;;;5069492;28;20136;-57
2022/05/01 07:41:52;;;;;;;17.88;11.55;;;;;;;;;;5072948;28;20133;-56
2022/05/01 07:44:19;;;;;;;18.02;11.23;;;;;;;;;;5064342;28;20264;-57
2022/05/01 07:46:45;;;;;;;17.23;10.43;;;;;;;;;;5055992;28;20558;-60
2022/05/01 07:49:12;;;;;;;17.75;10.70;;;;;;;;;;5080322;28;20555;-58
2022/05/01 07:51:38;;;;;;;16.98;9.25;;;;;;;;;;5072769;28;21003;-58
2022/05/01 07:54:05;;;;;;;13.65;8.60;;;;;;;;;;5064403;28;20144;-58
2022/05/01 07:56:32;;;;;;;12.77;8.30;;;;;;;;;;5076105;28;20076;-57
2022/05/01 07:58:58;;;;;;;15.63;9.63;;;;;;;;;;5050027;28;20568;-56
2022/05/01 08:01:25;;;;;;;14.50;8.13;;;;;;;;;;5069262;28;20057;-56
2022/05/01 08:06:36;;;;;;;13.63;8.48;;;;;;;;;;5049842;28;20499;-58
2022/05/01 08:09:03;;;;;;;14.55;8.30;;;;;;;;;;5063175;28;20088;-58
2022/05/01 08:11:30;;;;;;;13.30;7.95;;;;;;;;;;5088673;28;20114;-58
2022/05/01 08:13:56;;;;;;;16.52;8.70;;;;;;;;;;5065191;28;20100;-57
2022/05/01 08:16:23;;;;;;;13.20;9.25;;;;;;;;;;5059863;28;20156;-57
2022/05/01 08:21:36;;;;;;;15.15;8.23;;;;;;;;;;5052305;28;20524;-57
2022/05/01 08:24:03;;;;;;;15.38;8.70;;;;;;;;;;5057079;28;20100;-58
2022/05/01 08:26:33;;;;;;;17.15;9.45;;;;;;;;;;5065282;28;20511;-58
2022/05/01 08:29:00;;;;;;;13.13;8.25;;;;;;;;;;5048463;28;20085;-57
2022/05/01 08:31:27;;;;;;;14.82;7.53;;;;;;;;;;5047886;28;20089;-58
2022/05/01 08:33:54;;;;;;;12.50;7.32;;;;;;;;;;5049645;28;20080;-57
2022/05/01 08:36:20;;;;;;;12.48;7.63;;;;;;;;;;5047855;28;20590;-57
2022/05/01 08:38:47;;;;;;;14.23;7.55;;;;;;;;;;5063979;28;20084;-57
2022/05/01 08:41:13;;;;;;;12.23;7.40;;;;;;;;;;5068521;28;20084;-58
2022/05/01 08:43:39;;;;;;;12.50;7.57;;;;;;;;;;5062629;28;20116;-58
2022/05/01 08:46:09;;;;;;;13.75;7.78;;;;;;;;;;5047924;28;20084;-58
2022/05/01 08:48:40;;;;;;;11.63;7.20;;;;;;;;;;5051874;28;20064;-58
2022/05/01 08:51:07;;;;;;;12.30;7.50;;;;;;;;;;5075463;28;20456;-58
2022/05/01 08:53:36;;;;;;;19.40;7.35;;;;;;;;;;5087953;28;20146;-58
2022/05/01 08:56:05;;;;;;;15.73;7.07;;;;;;;;;;5070425;28;20084;-58
2022/05/01 08:58:31;;;;;;;10.70;6.22;;;;;;;;;;5063736;28;20503;-57
2022/05/01 09:00:58;;;;;;;10.88;6.03;;;;;;;;;;5059111;28;20117;-58
2022/05/01 09:03:25;;;;;;;12.30;6.53;;;;;;;;;;5055842;28;20862;-59
2022/05/01 09:05:51;;;;;;;10.88;6.30;;;;;;;;;;5057952;28;20491;-58
2022/05/01 09:08:18;;;;;;;13.18;6.55;;;;;;;;;;5065848;28;20967;-58
2022/05/01 09:10:44;;;;;;;11.88;6.90;;;;;;;;;;5058126;28;20084;-58
2022/05/01 09:13:11;;;;;;;12.70;6.30;;;;;;;;;;5055425;28;20049;-58
2022/05/01 09:15:40;;;;;;;12.02;5.95;;;;;;;;;;5055091;28;20152;-58
2022/05/01 09:18:08;;;;;;;10.73;6.60;;;;;;;;;;5064736;28;20591;-58
2022/05/01 09:20:54;;;;;;;11.68;6.28;;;;;;;;;;5063034;28;20067;-58
2022/05/01 09:23:34;;;;;;;11.68;6.57;;;;;;;;;;5047997;28;20303;-58
2022/05/01 09:26:00;;;;;;;12.10;6.13;;;;;;;;;;5053863;28;20557;-58
2022/05/01 09:28:33;;;;;;;13.63;6.35;;;;;;;;;;5063398;28;20076;-59
2022/05/01 09:30:59;;;;;;;14.80;6.90;;;;;;;;;;5055202;28;20500;-58
2022/05/01 09:33:25;;;;;;;10.32;6.38;;;;;;;;;;5049640;28;20135;-59
2022/05/01 09:35:52;;;;;;;10.50;6.15;;;;;;;;;;5055569;28;20061;-58
2022/05/01 09:38:18;;;;;;;10.88;5.57;;;;;;;;;;5060075;28;20582;-58
2022/05/01 09:40:46;;;;;;;8.52;5.30;;;;;;;;;;5056312;28;20080;-57
2022/05/01 09:43:31;;;;;;;10.50;5.53;;;;;;;;;;5062229;28;20064;-59
2022/05/01 09:46:10;;;;;;;10.77;5.53;;;;;;;;;;5059789;28;20077;-58
2022/05/01 09:48:37;;;;;;;10.65;5.90;;;;;;;;;;5064676;28;20148;-58
2022/05/01 09:51:13;;;;;;;12.85;5.80;;;;;;;;;;5063907;28;20519;-58
2022/05/01 09:53:40;;;;;;;12.23;5.63;;;;;;;;;;5051719;28;20140;-58
2022/05/01 09:56:06;;;;;;;12.68;5.93;;;;;;;;;;5063771;28;20119;-59
2022/05/01 09:58:33;;;;;;;8.73;5.22;;;;;;;;;;5061629;28;20116;-58
2022/05/01 10:01:06;;;;;;;11.00;4.97;;;;;;;;;;5068497;28;20081;-58
2022/05/01 10:03:34;;;;;;;9.95;5.25;;;;;;;;;;5065404;28;20107;-58
2022/05/01 10:06:01;;;;;;;11.52;4.85;;;;;;;;;;5071184;28;20509;-59
2022/05/01 10:08:27;;;;;;;9.52;5.50;;;;;;;;;;5083608;28;20148;-59
2022/05/01 10:10:58;;;;;;;11.88;5.63;;;;;;;;;;5077134;28;20060;-59
2022/05/01 10:13:25;;;;;;;9.73;5.38;;;;;;;;;;5077076;28;20053;-60
2022/05/01 10:16:03;;;;;;;9.48;6.10;;;;;;;;;;5075282;28;20569;-59
2022/05/01 10:18:31;;;;;;;11.48;5.35;;;;;;;;;;5066023;28;20195;-58
2022/05/01 10:20:58;;;;;;;8.88;5.43;;;;;;;;;;5055152;28;20053;-59
2022/05/01 10:23:25;;;;;;;10.50;5.63;;;;;;;;;;5058965;28;20061;-59
2022/05/01 10:26:01;;;;;;;12.13;5.63;;;;;;;;;;5061935;28;20049;-60
2022/05/01 10:28:50;;;;;;;9.82;5.22;;;;;;;;;;5079278;28;20041;-60
2022/05/01 10:34:20;;;;;;;9.98;5.00;;;;;;;;;;5065635;28;20520;-59
2022/05/01 10:36:57;;;;;;;13.70;5.50;;;;;;;;;;5048445;28;20057;-59
2022/05/01 10:39:23;;;;;;;9.70;4.97;;;;;;;;;;5047214;28;20463;-59
2022/05/01 10:41:50;;;;;;;11.10;4.95;;;;;;;;;;5048381;28;20440;-58
2022/05/01 10:44:28;;;;;;;11.75;5.07;;;;;;;;;;5047603;28;20081;-59
2022/05/01 10:46:54;;;;;;;8.57;5.00;;;;;;;;;;5066561;28;20175;-59
2022/05/01 10:49:34;;;;;;;10.20;5.45;;;;;;;;;;5053102;28;20080;-60
2022/05/01 10:52:21;;;;;;;10.85;5.65;;;;;;;;;;5048183;28;20081;-60
2022/05/01 10:54:50;;;;;;;9.63;5.47;;;;;;;;;;5053153;28;20516;-60
2022/05/01 10:57:17;;;;;;;8.02;4.63;;;;;;;;;;5071830;28;20514;-60
2022/05/01 10:59:46;;;;;;;9.73;5.18;;;;;;;;;;5076831;28;20052;-60
2022/05/01 11:02:29;;;;;;;9.20;5.40;;;;;;;;;;5077253;28;20570;-60
2022/05/01 11:04:56;;;;;;;9.73;5.00;;;;;;;;;;5079655;28;20084;-60
2022/05/01 11:07:25;;;;;;;9.85;5.13;;;;;;;;;;5091125;28;20473;-60
2022/05/01 11:09:51;;;;;;;7.95;4.97;;;;;;;;;;5086258;28;20084;-60
2022/05/01 11:12:20;;;;;;;10.35;5.07;;;;;;;;;;5050478;28;20097;-60
2022/05/01 11:14:53;;;;;;;7.85;4.15;;;;;;;;;;5058523;28;20180;-60
2022/05/01 11:17:36;;;;;;;9.05;4.90;;;;;;;;;;5070435;28;20536;-60
2022/05/01 11:20:04;;;;;;;8.75;4.68;;;;;;;;;;5070459;28;20063;-60
2022/05/01 11:22:31;;;;;;;11.65;4.38;;;;;;;;;;5056144;28;20135;-58
2022/05/01 11:24:58;;;;;;;10.13;4.63;;;;;;;;;;5066171;28;20057;-58
2022/05/01 11:27:24;;;;;;;9.25;4.45;;;;;;;;;;5050539;28;20098;-58
2022/05/01 11:30:31;;;;;;;9.40;4.53;;;;;;;;;;5049927;28;20133;-58
2022/05/01 11:32:59;;;;;;;6.97;4.35;;;;;;;;;;5056440;28;20081;-58
2022/05/01 11:35:44;;;;;;;9.00;4.35;;;;;;;;;;5058162;28;20081;-58
2022/05/01 11:38:10;;;;;;;10.93;4.75;;;;;;;;;;5049429;28;20088;-60
2022/05/01 11:40:52;;;;;;;6.93;3.70;;;;;;;;;;5049175;28;20507;-58
2022/05/01 11:43:19;;;;;;;9.50;4.50;;;;;;;;;;5049478;28;20141;-58
2022/05/01 11:45:46;;;;;;;10.03;5.00;;;;;;;;;;5057084;28;20116;-58
2022/05/01 11:48:17;;;;;;;8.68;4.32;;;;;;;;;;5061723;28;20053;-59
2022/05/01 11:50:45;;;;;;;13.15;4.60;;;;;;;;;;5069002;28;20118;-60
2022/05/01 11:53:19;;;;;;;8.27;4.80;;;;;;;;;;5063569;28;20112;-59
2022/05/01 12:04:29;;;;;;;9.88;4.18;;;;;;;;;;5049030;28;20049;-60
2022/05/01 12:06:56;;;;;;;9.38;4.57;;;;;;;;;;5049807;28;20088;-60
2022/05/01 12:09:24;;;;;;;10.48;4.68;;;;;;;;;;5050292;28;20159;-59
2022/05/01 12:11:50;;;;;;;8.18;4.25;;;;;;;;;;5049296;28;20621;-60
2022/05/01 12:14:22;;;;;;;7.75;4.07;;;;;;;;;;5050271;28;20081;-59
2022/05/01 12:16:48;;;;;;;12.27;4.50;;;;;;;;;;5067958;28;20084;-59
2022/05/01 12:19:15;;;;;;;7.00;3.85;;;;;;;;;;5059250;28;20073;-58
2022/05/01 12:21:42;;;;;;;8.90;4.63;;;;;;;;;;5049575;28;20590;-60
2022/05/01 12:24:09;;;;;;;7.75;4.20;;;;;;;;;;5049639;28;20568;-60
2022/05/01 12:26:46;;;;;;;7.63;4.35;;;;;;;;;;5049715;28;20119;-58
2022/05/01 12:29:13;;;;;;;8.57;4.47;;;;;;;;;;5049509;28;20143;-58
2022/05/01 12:31:58;;;;;;;8.48;4.60;;;;;;;;;;5049888;28;20045;-58
2022/05/01 12:34:26;;;;;;;6.88;4.03;;;;;;;;;;5052718;28;20061;-59
2022/05/01 12:37:00;;;;;;;8.55;4.40;;;;;;;;;;5069146;28;20092;-59
2022/05/01 12:39:27;;;;;;;9.50;4.57;;;;;;;;;;5069496;28;20049;-59
2022/05/01 12:45:07;;;;;;;11.95;4.50;;;;;;;;;;5069507;28;20304;-59
2022/05/01 12:47:34;;;;;;;8.57;4.63;;;;;;;;;;5068775;28;20080;-59
2022/05/01 12:50:01;;;;;;;10.20;4.45;;;;;;;;;;5069315;28;20052;-59
2022/05/01 12:52:31;;;;;;;10.13;4.75;;;;;;;;;;5064933;28;20096;-59
2022/05/01 12:55:04;;;;;;;7.63;4.43;;;;;;;;;;5049050;28;20132;-59
2022/05/01 12:57:31;;;;;;;8.43;4.70;;;;;;;;;;5048967;28;20544;-59
2022/05/01 12:59:58;;;;;;;8.55;4.35;;;;;;;;;;5048938;28;20539;-59
2022/05/01 13:02:25;;;;;;;9.48;4.63;;;;;;;;;;5048409;28;20131;-59
2022/05/01 13:04:58;;;;;;;7.85;3.72;;;;;;;;;;5049240;28;20049;-59
2022/05/01 13:07:34;;;;;;;10.35;4.28;;;;;;;;;;5048956;28;20061;-59
2022/05/01 13:10:01;;;;;;;8.88;4.13;;;;;;;;;;5049437;28;20117;-59
2022/05/01 13:12:32;;;;;;;8.90;4.13;;;;;;;;;;5048534;28;20089;-59
2022/05/01 13:14:59;;;;;;;7.60;4.07;;;;;;;;;;5048866;28;20152;-59
2022/05/01 13:17:27;;;;;;;8.02;4.30;;;;;;;;;;5048316;28;20081;-59
2022/05/01 13:20:00;;;;;;;6.85;3.50;;;;;;;;;;5048723;28;20108;-59
2022/05/01 13:22:26;;;;;;;8.60;4.10;;;;;;;;;;5048749;28;20152;-59
2022/05/01 13:24:53;;;;;;;6.65;3.65;;;;;;;;;;5048655;28;20530;-59
2022/05/01 13:27:21;;;;;;;7.63;3.65;;;;;;;;;;5049435;28;20565;-59
2022/05/01 13:29:47;;;;;;;7.97;4.03;;;;;;;;;;5049536;28;20603;-59
2022/05/01 13:32:15;;;;;;;10.37;4.20;;;;;;;;;;5048560;28;20049;-59
2022/05/01 13:34:44;;;;;;;8.57;3.95;;;;;;;;;;5048648;28;20053;-59
2022/05/01 13:37:11;;;;;;;7.93;4.13;;;;;;;;;;5058668;28;20087;-59
2022/05/01 13:45:08;;;;;;;7.03;3.97;;;;;;;;;;5067292;28;20570;-59
2022/05/01 13:47:36;;;;;;;8.25;3.83;;;;;;;;;;5068097;28;20478;-59
2022/05/01 13:50:05;;;;;;;6.90;3.92;;;;;;;;;;5068633;28;20103;-59
2022/05/01 13:52:32;;;;;;;9.50;4.25;;;;;;;;;;5069011;28;20088;-59
2022/05/01 13:54:58;;;;;;;7.90;4.47;;;;;;;;;;5068820;28;20088;-59
2022/05/01 13:57:24;;;;;;;8.32;4.28;;;;;;;;;;5067497;28;20079;-59
2022/05/01 13:59:51;;;;;;;7.70;4.22;;;;;;;;;;5068618;28;20132;-59
2022/05/01 14:02:17;;;;;;;7.65;3.88;;;;;;;;;;5049270;28;20652;-59
2022/05/01 14:04:46;;;;;;;9.48;4.20;;;;;;;;;;5047880;28;20046;-59
2022/05/01 14:07:13;;;;;;;8.95;3.97;;;;;;;;;;5047980;28;20041;-59
2022/05/01 14:09:41;;;;;;;7.03;3.85;;;;;;;;;;5048113;28;20088;-59
2022/05/01 14:12:09;;;;;;;8.18;3.72;;;;;;;;;;5048090;28;20140;-59
2022/05/01 14:14:35;;;;;;;7.57;3.70;;;;;;;;;;5047952;28;20065;-59
2022/05/01 14:17:01;;;;;;;8.25;3.75;;;;;;;;;;5048666;28;20049;-59
2022/05/01 14:19:29;;;;;;;8.68;3.75;;;;;;;;;;5068081;28;20574;-59
2022/05/01 14:21:56;;;;;;;6.90;3.53;;;;;;;;;;5068683;28;20096;-59
2022/05/01 14:24:42;;;;;;;8.48;3.58;;;;;;;;;;5067819;28;20503;-59
2022/05/01 14:27:09;;;;;;;8.55;3.88;;;;;;;;;;5068201;28;20143;-59
2022/05/01 14:29:36;;;;;;;6.25;3.40;;;;;;;;;;5070612;28;20076;-59
2022/05/01 14:32:28;;;;;;;8.23;3.60;;;;;;;;;;5071723;28;20435;-59
2022/05/01 14:35:02;;;;;;;6.95;3.45;;;;;;;;;;5039147;28;20115;-59
2022/05/01 14:37:47;;;;;;;11.73;3.92;;;;;;;;;;5058885;28;20107;-59
2022/05/01 14:40:17;;;;;;;6.95;3.33;;;;;;;;;;5051077;28;20132;-59
2022/05/01 14:42:47;;;;;;;6.60;3.40;;;;;;;;;;5050922;28;20057;-59
2022/05/01 14:45:14;;;;;;;7.50;3.50;;;;;;;;;;5050866;28;20073;-59
2022/05/01 14:47:56;;;;;;;8.27;3.45;;;;;;;;;;5051158;28;20138;-59
2022/05/01 14:50:23;;;;;;;7.28;3.28;;;;;;;;;;5050960;28;20077;-59
2022/05/01 14:52:51;;;;;;;5.38;3.20;;;;;;;;;;5051372;28;20136;-59
2022/05/01 14:55:19;;;;;;;6.00;3.45;;;;;;;;;;5051062;28;20058;-59
2022/05/01 14:57:48;;;;;;;7.47;3.58;;;;;;;;;;5051322;28;20085;-59
2022/05/01 15:08:24;;;;;;;6.35;3.45;;;;;;;;;;5051413;28;20130;-60
2022/05/01 15:10:50;;;;;;;6.90;3.53;;;;;;;;;;5051075;28;20057;-60
2022/05/01 15:13:17;;;;;;;9.23;3.60;;;;;;;;;;5050317;28;20084;-60
2022/05/01 15:16:02;;;;;;;7.10;3.40;;;;;;;;;;5059372;28;20084;-60
2022/05/01 15:18:40;;;;;;;5.72;2.88;;;;;;;;;;5070148;28;20053;-60
2022/05/01 15:24:22;;;;;;;7.07;2.90;;;;;;;;;;5023409;28;20053;-60
2022/05/01 15:26:51;;;;;;;4.70;2.70;;;;;;;;;;5055170;28;20508;-60
2022/05/01 15:29:21;;;;;;;6.85;3.20;;;;;;;;;;5050589;28;20167;-60